createdAt,value
2022-08-30T00:02:31.342Z,16.73
2022-08-30T00:05:02.086Z,16.67
2022-08-30T00:07:33.253Z,16.69
2022-08-30T00:10:03.194Z,16.70
2022-08-30T00:12:36.387Z,16.63
2022-08-30T00:15:09.827Z,16.53
2022-08-30T00:17:43.939Z,16.51
2022-08-30T00:20:20.052Z,16.48
2022-08-30T00:22:57.964Z,16.50
2022-08-30T00:25:31.644Z,16.47
2022-08-30T00:28:04.557Z,16.41
2022-08-30T00:31:06.202Z,16.42
2022-08-30T00:33:38.959Z,16.40
2022-08-30T00:36:11.768Z,16.46
2022-08-30T00:38:42.331Z,16.57
2022-08-30T00:41:15.155Z,16.70
2022-08-30T00:43:44.899Z,16.80
2022-08-30T00:46:21.183Z,16.89
2022-08-30T00:48:57.683Z,16.80
2022-08-30T00:51:32.367Z,16.77
2022-08-30T00:54:03.928Z,16.61
2022-08-30T00:56:34.939Z,16.48
2022-08-30T00:59:08.373Z,16.36
2022-08-30T01:01:38.290Z,16.27
2022-08-30T01:04:12.460Z,16.24
2022-08-30T01:06:44.895Z,16.23
2022-08-30T01:09:16.337Z,16.22
2022-08-30T01:11:50.482Z,16.22
2022-08-30T01:14:25.823Z,16.23
2022-08-30T01:16:58.257Z,16.25
2022-08-30T01:19:54.326Z,16.23
2022-08-30T01:22:54.513Z,16.30
2022-08-30T01:25:30.358Z,16.35
2022-08-30T01:28:05.739Z,16.41
2022-08-30T01:30:39.493Z,16.42
2022-08-30T01:33:11.113Z,16.39
2022-08-30T01:36:06.331Z,16.36
2022-08-30T01:38:51.807Z,16.32
2022-08-30T01:41:29.037Z,16.25
2022-08-30T01:44:03.824Z,16.20
2022-08-30T01:46:40.648Z,16.11
2022-08-30T01:49:13.486Z,16.02
2022-08-30T01:51:47.259Z,15.95
2022-08-30T01:54:23.219Z,15.90
2022-08-30T01:57:00.416Z,15.86
2022-08-30T01:59:29.782Z,15.93
2022-08-30T02:02:00.042Z,15.97
2022-08-30T02:04:30.827Z,15.89
2022-08-30T02:07:06.726Z,15.85
2022-08-30T02:09:40.142Z,15.80
2022-08-30T02:12:14.324Z,15.73
2022-08-30T02:14:45.901Z,15.67
2022-08-30T02:17:18.596Z,15.61
2022-08-30T02:19:47.954Z,15.55
2022-08-30T02:22:19.699Z,15.51
2022-08-30T02:24:51.006Z,15.50
2022-08-30T02:27:23.045Z,15.50
2022-08-30T02:29:55.947Z,15.56
2022-08-30T02:32:25.943Z,15.73
2022-08-30T02:35:01.306Z,15.85
2022-08-30T02:37:33.461Z,15.84
2022-08-30T02:40:07.882Z,15.82
2022-08-30T02:42:48.553Z,15.82
2022-08-30T02:45:17.935Z,15.82
2022-08-30T02:47:54.569Z,15.88
2022-08-30T02:50:41.066Z,15.89
2022-08-30T02:53:16.376Z,15.94
2022-08-30T02:55:48.464Z,16.05
2022-08-30T02:58:18.238Z,16.07
2022-08-30T03:00:47.477Z,16.05
2022-08-30T03:03:20.793Z,16.08
2022-08-30T03:05:53.994Z,16.12
2022-08-30T03:08:25.174Z,16.11
2022-08-30T03:10:57.917Z,16.13
2022-08-30T03:13:27.434Z,16.19
2022-08-30T03:15:59.896Z,16.26
2022-08-30T03:18:29.209Z,16.31
2022-08-30T03:22:16.585Z,16.35
2022-08-30T03:25:00.051Z,16.37
2022-08-30T03:27:32.084Z,16.41
2022-08-30T03:30:04.602Z,16.46
2022-08-30T03:32:35.765Z,16.38
2022-08-30T03:35:07.508Z,16.32
2022-08-30T03:37:38.607Z,16.29
2022-08-30T03:40:11.502Z,16.27
2022-08-30T03:45:39.964Z,16.20
2022-08-30T03:48:10.591Z,16.31
2022-08-30T03:50:41.079Z,16.36
2022-08-30T03:53:15.045Z,16.34
2022-08-30T03:55:49.183Z,16.29
2022-08-30T03:58:20.568Z,16.30
2022-08-30T04:00:53.141Z,16.29
2022-08-30T04:03:26.340Z,16.30
2022-08-30T04:05:56.919Z,16.28
2022-08-30T04:08:30.258Z,16.36
2022-08-30T04:11:03.003Z,16.44
2022-08-30T04:13:35.510Z,16.50
2022-08-30T04:16:06.727Z,16.56
2022-08-30T04:18:39.371Z,16.59
2022-08-30T04:21:45.182Z,16.72
2022-08-30T04:24:17.118Z,16.85
2022-08-30T04:26:48.201Z,16.83
2022-08-30T04:29:19.264Z,16.93
2022-08-30T04:31:49.521Z,16.89
2022-08-30T04:34:21.917Z,16.91
2022-08-30T04:36:58.306Z,16.94
2022-08-30T04:39:33.233Z,16.88
2022-08-30T04:42:04.717Z,16.90
2022-08-30T04:44:39.067Z,17.03
2022-08-30T04:47:10.655Z,17.10
2022-08-30T04:49:43.386Z,17.15
2022-08-30T04:52:15.633Z,17.25
2022-08-30T04:54:46.013Z,17.24
2022-08-30T04:57:17.852Z,17.37
2022-08-30T04:59:56.391Z,17.43
2022-08-30T05:02:29.202Z,17.31
2022-08-30T05:05:18.379Z,17.41
2022-08-30T05:08:01.673Z,17.46
2022-08-30T05:14:06.544Z,17.65
2022-08-30T05:16:39.653Z,17.68
2022-08-30T05:19:09.155Z,17.65
2022-08-30T05:22:15.347Z,17.61
2022-08-30T05:28:47.876Z,17.60
2022-08-30T05:31:24.629Z,17.59
2022-08-30T05:33:58.874Z,17.61
2022-08-30T05:36:34.540Z,17.69
2022-08-30T05:39:29.682Z,17.77
2022-08-30T05:43:03.923Z,17.84
2022-08-30T05:45:43.418Z,17.92
2022-08-30T05:48:13.657Z,18.03
2022-08-30T05:51:29.426Z,18.17
2022-08-30T05:54:12.541Z,18.34
2022-08-30T05:56:47.792Z,18.50
2022-08-30T05:59:42.279Z,18.60
2022-08-30T06:02:12.387Z,18.63
2022-08-30T06:05:10.598Z,18.66
2022-08-30T06:07:44.994Z,18.74
2022-08-30T06:10:46.300Z,18.78
2022-08-30T06:13:19.234Z,18.95
2022-08-30T06:15:53.589Z,19.01
2022-08-30T06:19:33.796Z,18.99
2022-08-30T06:22:10.665Z,19.21
2022-08-30T06:25:00.393Z,19.22
2022-08-30T06:27:31.983Z,19.28
2022-08-30T06:34:39.984Z,19.65
2022-08-30T06:37:21.998Z,19.65
2022-08-30T06:40:04.785Z,19.69
2022-08-30T06:42:35.349Z,19.73
2022-08-30T06:45:11.526Z,19.71
2022-08-30T06:47:45.486Z,19.71
2022-08-30T06:50:27.450Z,19.77
2022-08-30T06:53:22.218Z,19.90
2022-08-30T06:56:27.624Z,19.94
2022-08-30T06:59:03.998Z,19.93
2022-08-30T07:01:35.466Z,19.83
2022-08-30T07:04:12.436Z,19.95
2022-08-30T07:06:42.244Z,20.00
2022-08-30T07:09:43.537Z,20.06
2022-08-30T07:12:18.743Z,20.13
2022-08-30T07:14:50.607Z,20.23
2022-08-30T07:17:40.117Z,20.22
2022-08-30T07:20:17.375Z,20.27
2022-08-30T07:23:16.636Z,20.33
2022-08-30T07:25:59.275Z,20.41
2022-08-30T07:28:29.840Z,20.52
2022-08-30T07:31:03.341Z,20.65
2022-08-30T07:33:50.434Z,20.61
2022-08-30T07:37:05.576Z,20.65
2022-08-30T07:40:06.646Z,21.00
2022-08-30T07:43:19.110Z,21.50
2022-08-30T07:45:49.296Z,22.16
2022-08-30T07:48:19.260Z,22.63
2022-08-30T07:50:52.610Z,22.97
2022-08-30T07:53:33.610Z,23.40
2022-08-30T07:56:23.078Z,23.85
2022-08-30T07:58:54.718Z,24.21
2022-08-30T08:02:28.151Z,24.35
2022-08-30T08:04:59.431Z,24.52
2022-08-30T08:07:33.807Z,24.53
2022-08-30T08:10:07.531Z,24.55
2022-08-30T08:12:37.372Z,24.50
2022-08-30T08:15:11.962Z,24.36
2022-08-30T08:17:44.948Z,23.94
2022-08-30T08:20:19.321Z,23.47
2022-08-30T08:27:29.545Z,23.14
2022-08-30T08:30:08.315Z,23.38
2022-08-30T08:32:41.039Z,23.43
2022-08-30T08:35:25.465Z,23.64
2022-08-30T08:38:04.175Z,24.37
2022-08-30T08:41:05.167Z,24.98
2022-08-30T08:43:37.794Z,25.49
2022-08-30T08:46:14.046Z,25.36
2022-08-30T08:49:00.662Z,24.99
2022-08-30T08:51:59.960Z,24.59
2022-08-30T08:54:44.978Z,24.41
2022-08-30T08:57:18.464Z,24.21
2022-08-30T08:59:49.547Z,23.99
2022-08-30T09:02:28.945Z,23.93
2022-08-30T09:05:02.945Z,23.91
2022-08-30T09:07:39.100Z,23.75
2022-08-30T09:10:10.346Z,23.58
2022-08-30T09:12:50.600Z,23.53
2022-08-30T09:15:30.321Z,23.88
2022-08-30T09:18:07.255Z,24.85
2022-08-30T09:21:24.784Z,26.25
2022-08-30T09:24:39.224Z,29.30
2022-08-30T09:27:23.204Z,31.10
2022-08-30T09:30:23.729Z,31.59
2022-08-30T09:33:21.789Z,30.94
2022-08-30T09:35:54.171Z,30.54
2022-08-30T09:38:35.174Z,29.92
2022-08-30T09:45:40.357Z,29.54
2022-08-30T09:48:33.616Z,28.72
2022-08-30T09:55:34.054Z,28.72
2022-08-30T09:58:19.847Z,28.50
2022-08-30T10:01:16.410Z,27.98
2022-08-30T10:03:51.999Z,27.39
2022-08-30T10:06:42.595Z,26.69
2022-08-30T10:09:28.370Z,26.01
2022-08-30T10:12:33.127Z,25.55
2022-08-30T10:15:15.526Z,25.09
2022-08-30T10:18:00.231Z,24.61
2022-08-30T10:25:12.165Z,23.91
2022-08-30T10:27:55.951Z,23.82
2022-08-30T10:30:37.190Z,23.82
2022-08-30T10:33:21.951Z,23.68
2022-08-30T10:35:59.895Z,23.54
2022-08-30T10:38:35.372Z,23.52
2022-08-30T10:41:29.271Z,23.56
2022-08-30T10:44:10.547Z,23.79
2022-08-30T10:47:42.071Z,23.92
2022-08-30T10:50:25.423Z,24.10
2022-08-30T10:53:22.430Z,24.23
2022-08-30T10:56:04.312Z,24.23
2022-08-30T10:58:43.514Z,24.07
2022-08-30T11:06:12.995Z,23.82
2022-08-30T11:09:02.071Z,23.80
2022-08-30T11:11:59.915Z,23.76
2022-08-30T11:14:34.062Z,23.63
2022-08-30T11:17:04.775Z,23.51
2022-08-30T11:19:40.823Z,23.42
2022-08-30T11:22:24.959Z,23.41
2022-08-30T11:25:38.901Z,23.31
2022-08-30T11:28:09.218Z,23.22
2022-08-30T11:31:15.841Z,23.22
2022-08-30T11:33:50.893Z,23.24
2022-08-30T11:36:51.094Z,23.29
2022-08-30T11:39:55.101Z,23.32
2022-08-30T11:42:32.576Z,23.23
2022-08-30T11:45:25.390Z,23.11
2022-08-30T11:48:11.322Z,23.04
2022-08-30T11:51:11.708Z,22.94
2022-08-30T11:53:59.382Z,22.94
2022-08-30T11:56:58.012Z,22.98
2022-08-30T11:59:37.504Z,22.93
2022-08-30T12:02:09.686Z,22.89
2022-08-30T12:04:51.189Z,22.91
2022-08-30T12:08:04.718Z,22.94
2022-08-30T12:10:47.530Z,22.93
2022-08-30T12:13:57.260Z,22.90
2022-08-30T12:17:10.063Z,22.87
2022-08-30T12:19:50.226Z,22.80
2022-08-30T12:23:15.201Z,22.80
2022-08-30T12:25:49.298Z,22.79
2022-08-30T12:28:26.736Z,22.78
2022-08-30T12:31:14.482Z,22.76
2022-08-30T12:33:51.712Z,22.80
2022-08-30T12:36:57.179Z,22.76
2022-08-30T12:39:40.858Z,22.73
2022-08-30T12:42:23.067Z,22.69
2022-08-30T12:45:18.241Z,22.71
2022-08-30T12:48:33.633Z,22.75
2022-08-30T12:51:22.117Z,22.71
2022-08-30T12:53:58.082Z,22.51
2022-08-30T12:57:25.323Z,22.32
2022-08-30T13:00:18.611Z,22.09
2022-08-30T13:02:59.090Z,22.03
2022-08-30T13:05:32.658Z,21.93
2022-08-30T13:08:26.292Z,21.77
2022-08-30T13:11:12.006Z,21.76
2022-08-30T13:18:39.921Z,21.83
2022-08-30T13:22:23.870Z,21.92
2022-08-30T13:25:15.818Z,22.06
2022-08-30T13:35:32.842Z,21.97
2022-08-30T13:39:02.187Z,21.96
2022-08-30T13:51:05.859Z,22.00
2022-08-30T13:53:53.272Z,21.92
2022-08-30T13:57:04.294Z,21.80
2022-08-30T13:59:40.370Z,21.68
2022-08-30T14:03:01.769Z,21.72
2022-08-30T14:06:32.326Z,21.91
2022-08-30T14:10:30.581Z,22.03
2022-08-30T14:12:57.463Z,22.03
2022-08-30T14:16:26.716Z,22.02
2022-08-30T14:19:02.010Z,22.01
2022-08-30T14:22:20.284Z,21.97
2022-08-30T14:24:56.711Z,21.90
2022-08-30T14:27:53.853Z,21.87
2022-08-30T14:31:27.937Z,21.81
2022-08-30T14:34:23.303Z,21.68
2022-08-30T14:36:56.961Z,21.58
2022-08-30T14:40:50.042Z,21.51
2022-08-30T14:44:10.665Z,21.49
2022-08-30T14:50:34.010Z,21.31
2022-08-30T14:53:48.766Z,21.28
2022-08-30T15:12:23.819Z,20.97
2022-08-30T15:32:52.915Z,20.07
2022-08-30T15:39:27.785Z,19.47
2022-08-30T15:42:55.717Z,19.22
2022-08-30T15:45:33.676Z,19.10
2022-08-30T15:51:41.503Z,18.87
2022-08-30T15:54:35.269Z,18.80
2022-08-30T16:19:16.299Z,18.46
2022-08-30T16:22:40.751Z,18.41
2022-08-30T16:25:46.315Z,18.34
2022-08-30T16:28:40.012Z,18.28
2022-08-30T16:31:34.135Z,18.29
2022-08-30T16:34:05.706Z,18.32
2022-08-30T16:36:36.522Z,18.36
2022-08-30T16:39:26.767Z,18.33
2022-08-30T16:42:21.004Z,18.33
2022-08-30T16:44:51.777Z,18.38
2022-08-30T16:47:26.633Z,18.40
2022-08-30T16:50:00.476Z,18.38
2022-08-30T16:52:42.334Z,18.34
2022-08-30T16:55:55.587Z,18.34
2022-08-30T16:58:26.633Z,18.29
2022-08-30T17:00:56.710Z,18.30
2022-08-30T17:03:38.319Z,18.30
2022-08-30T17:06:09.436Z,18.32
2022-08-30T17:08:39.339Z,18.35
2022-08-30T17:11:14.340Z,18.40
2022-08-30T17:13:47.610Z,18.46
2022-08-30T17:16:27.364Z,18.50
2022-08-30T17:18:59.916Z,18.52
2022-08-30T17:22:24.310Z,18.56
2022-08-30T17:25:07.208Z,18.59
2022-08-30T17:27:37.944Z,18.55
2022-08-30T17:30:09.050Z,18.55
2022-08-30T17:32:40.778Z,18.51
2022-08-30T17:35:11.699Z,18.51
2022-08-30T17:37:43.699Z,18.49
2022-08-30T17:40:15.848Z,18.48
2022-08-30T17:42:45.980Z,18.47
2022-08-30T17:45:19.549Z,18.44
2022-08-30T17:47:49.175Z,18.42
2022-08-30T17:50:22.173Z,18.44
2022-08-30T17:52:55.621Z,18.44
2022-08-30T17:55:26.856Z,18.43
2022-08-30T17:58:03.549Z,18.44
2022-08-30T18:00:36.849Z,18.43
2022-08-30T18:03:20.164Z,18.45
2022-08-30T18:05:55.048Z,18.41
2022-08-30T18:08:31.161Z,18.34
2022-08-30T18:11:09.312Z,18.34
2022-08-30T18:13:39.913Z,18.33
2022-08-30T18:16:12.235Z,18.35
2022-08-30T18:18:42.709Z,18.36
2022-08-30T18:21:40.961Z,18.39
2022-08-30T18:24:15.439Z,18.38
2022-08-30T18:26:52.289Z,18.35
2022-08-30T18:29:29.384Z,18.35
2022-08-30T18:32:03.459Z,18.34
2022-08-30T18:34:34.109Z,18.29
2022-08-30T18:37:11.489Z,18.29
2022-08-30T18:39:44.127Z,18.32
2022-08-30T18:42:17.410Z,18.36
2022-08-30T18:44:47.017Z,18.33
2022-08-30T18:47:18.704Z,18.30
2022-08-30T18:50:03.733Z,18.30
2022-08-30T18:52:36.914Z,18.30
2022-08-30T18:55:19.074Z,18.29
2022-08-30T18:57:49.060Z,18.29
2022-08-30T19:00:20.263Z,18.23
2022-08-30T19:02:50.162Z,18.17
2022-08-30T19:05:41.405Z,18.18
2022-08-30T19:08:16.740Z,18.20
2022-08-30T19:11:04.652Z,18.19
2022-08-30T19:13:40.821Z,18.17
2022-08-30T19:16:16.264Z,18.16
2022-08-30T19:18:48.995Z,18.15
2022-08-30T19:21:52.516Z,18.15
2022-08-30T19:24:29.124Z,18.11
2022-08-30T19:27:01.220Z,18.06
2022-08-30T19:29:32.525Z,18.02
2022-08-30T19:32:04.909Z,18.03
2022-08-30T19:34:34.152Z,18.03
2022-08-30T19:37:40.617Z,17.98
2022-08-30T19:40:17.670Z,17.95
2022-08-30T19:42:54.720Z,17.94
2022-08-30T19:45:25.721Z,17.92
2022-08-30T19:47:58.479Z,17.93
2022-08-30T19:50:34.129Z,17.96
2022-08-30T19:53:09.639Z,17.94
2022-08-30T19:55:40.786Z,17.93
2022-08-30T19:58:15.808Z,17.91
2022-08-30T20:01:01.245Z,17.90
2022-08-30T20:03:45.252Z,17.93
2022-08-30T20:06:17.751Z,17.94
2022-08-30T20:08:51.268Z,17.91
2022-08-30T20:11:37.558Z,17.93
2022-08-30T20:14:15.812Z,17.89
2022-08-30T20:16:57.360Z,17.82
2022-08-30T20:19:32.070Z,17.78
2022-08-30T20:22:35.173Z,17.80
2022-08-30T20:25:07.552Z,17.83
2022-08-30T20:27:41.771Z,17.80
2022-08-30T20:30:14.589Z,17.81
2022-08-30T20:32:48.630Z,17.83
2022-08-30T20:35:18.983Z,17.82
2022-08-30T20:37:51.412Z,17.79
2022-08-30T20:40:25.663Z,17.74
2022-08-30T20:42:59.354Z,17.72
2022-08-30T20:45:34.789Z,17.75
2022-08-30T20:48:07.249Z,17.73
2022-08-30T20:50:40.745Z,17.70
2022-08-30T20:53:12.805Z,17.70
2022-08-30T20:55:44.360Z,17.67
2022-08-30T20:58:18.952Z,17.63
2022-08-30T21:00:53.373Z,17.62
2022-08-30T21:03:27.933Z,17.60
2022-08-30T21:06:05.578Z,17.57
2022-08-30T21:08:38.873Z,17.51
2022-08-30T21:11:09.237Z,17.48
2022-08-30T21:17:43.790Z,17.39
2022-08-30T21:20:22.790Z,17.36
2022-08-30T21:23:28.472Z,17.30
2022-08-30T21:26:07.989Z,17.24
2022-08-30T21:28:40.868Z,17.19
2022-08-30T21:31:18.761Z,17.14
2022-08-30T21:34:01.796Z,17.08
2022-08-30T21:36:50.109Z,17.03
2022-08-30T21:39:24.605Z,16.97
2022-08-30T21:41:58.362Z,16.92
2022-08-30T21:44:32.135Z,16.89
2022-08-30T21:47:03.206Z,16.84
2022-08-30T21:49:36.843Z,16.82
2022-08-30T21:52:10.734Z,16.79
2022-08-30T21:54:43.544Z,16.78
2022-08-30T21:57:14.142Z,16.75
2022-08-30T21:59:47.875Z,16.73
2022-08-30T22:02:23.612Z,16.72
2022-08-30T22:04:57.535Z,16.70
2022-08-30T22:07:32.310Z,16.68
2022-08-30T22:10:02.241Z,16.64
2022-08-30T22:12:41.545Z,16.62
2022-08-30T22:15:16.511Z,16.59
2022-08-30T22:17:49.272Z,16.54
2022-08-30T22:20:18.939Z,16.51
2022-08-30T22:22:51.431Z,16.49
2022-08-30T22:25:21.778Z,16.47
2022-08-30T22:27:54.802Z,16.47
2022-08-30T22:30:24.833Z,16.47
2022-08-30T22:33:03.082Z,16.49
2022-08-30T22:35:36.848Z,16.50
2022-08-30T22:38:12.488Z,16.50
2022-08-30T22:40:52.651Z,16.52
2022-08-30T22:43:24.464Z,16.54
2022-08-30T22:45:56.843Z,16.56
2022-08-30T22:48:27.867Z,16.59
2022-08-30T22:51:01.327Z,16.62
2022-08-30T22:53:35.176Z,16.64
2022-08-30T22:56:27.602Z,16.64
2022-08-30T22:59:07.227Z,16.62
2022-08-30T23:01:43.722Z,16.62
2022-08-30T23:04:13.624Z,16.63
2022-08-30T23:06:49.932Z,16.61
2022-08-30T23:09:21.543Z,16.59
2022-08-30T23:11:53.113Z,16.58
2022-08-30T23:14:24.639Z,16.55
2022-08-30T23:16:54.949Z,16.54
2022-08-30T23:19:27.202Z,16.56
2022-08-30T23:22:00.723Z,16.59
2022-08-30T23:24:50.859Z,16.58
2022-08-30T23:27:49.808Z,16.57
2022-08-30T23:30:45.124Z,16.54
2022-08-30T23:33:36.063Z,16.55
2022-08-30T23:36:29.079Z,16.57
2022-08-30T23:39:24.706Z,16.58
2022-08-30T23:42:17.395Z,16.58
2022-08-30T23:45:07.984Z,16.58
2022-08-30T23:48:00.680Z,16.57
2022-08-30T23:50:52.314Z,16.57
2022-08-30T23:53:43.820Z,16.56
2022-08-30T23:56:44.488Z,16.55
2022-08-30T23:59:37.827Z,16.56
